Time;durP1;ratioP1;P1;durP2;ratioP2;P2;SDS_P1;SDS_P2;PMS_P1;PMS_P2;Temp;Humidity;BMP_temperature;BMP_pressure;BME280_temperature;BME280_humidity;BME280_pressure;Samples;Min_cycle;Max_cycle;Signal;HPM_P1;HPM_P2
2022/08/14 00:01:35;;;;;;;23.13;16.95;;;;;;;;;;5096561;28;20296;-50
2022/08/14 00:04:02;;;;;;;23.35;17.20;;;;;;;;;;5096753;28;20206;-45
2022/08/14 00:06:49;;;;;;;22.55;15.60;;;;;;;;;;5096483;28;20202;-47
2022/08/14 00:09:16;;;;;;;23.73;15.85;;;;;;;;;;5096217;28;20659;-45
2022/08/14 00:11:43;;;;;;;19.48;15.35;;;;;;;;;;5096449;28;20216;-47
2022/08/14 00:14:11;;;;;;;21.02;15.82;;;;;;;;;;5096498;28;20199;-45
2022/08/14 00:16:43;;;;;;;19.73;15.88;;;;;;;;;;5096696;28;20199;-46
2022/08/14 00:19:11;;;;;;;18.23;15.50;;;;;;;;;;5096073;28;20203;-45
2022/08/14 00:21:49;;;;;;;21.13;16.20;;;;;;;;;;5096297;28;20219;-45
2022/08/14 00:24:20;;;;;;;22.65;16.35;;;;;;;;;;5096154;28;20205;-45
2022/08/14 00:26:57;;;;;;;20.45;16.35;;;;;;;;;;5096255;28;20289;-48
2022/08/14 00:29:31;;;;;;;20.88;17.30;;;;;;;;;;5095722;28;20616;-46
2022/08/14 00:32:07;;;;;;;22.10;16.50;;;;;;;;;;5095704;28;20650;-45
2022/08/14 00:34:55;;;;;;;21.10;15.52;;;;;;;;;;5093768;28;20276;-51
2022/08/14 00:37:22;;;;;;;25.00;16.25;;;;;;;;;;5093161;28;20194;-45
2022/08/14 00:39:49;;;;;;;21.85;15.88;;;;;;;;;;5096119;28;20207;-45
2022/08/14 00:42:21;;;;;;;22.80;16.33;;;;;;;;;;5095785;28;20253;-46
2022/08/14 00:45:11;;;;;;;21.13;15.77;;;;;;;;;;5095553;28;20534;-46
2022/08/14 00:47:41;;;;;;;20.23;16.63;;;;;;;;;;5095597;28;20624;-46
2022/08/14 00:50:14;;;;;;;21.05;16.35;;;;;;;;;;5095684;28;20202;-47
2022/08/14 00:52:45;;;;;;;22.48;16.65;;;;;;;;;;5095635;28;20632;-45
2022/08/14 00:55:18;;;;;;;20.35;16.55;;;;;;;;;;5095870;28;20531;-45
2022/08/14 00:58:29;;;;;;;19.45;16.52;;;;;;;;;;5095597;28;20199;-46
2022/08/14 01:00:38;;;;;;;26.20;17.13;;;;;;;;;;5095152;28;20539;-48
2022/08/14 01:03:18;;;;;;;21.63;16.63;;;;;;;;;;5095443;28;20528;-45
2022/08/14 01:05:49;;;;;;;20.48;17.00;;;;;;;;;;5095556;28;20198;-48
2022/08/14 01:08:19;;;;;;;25.13;17.15;;;;;;;;;;5095600;28;20195;-46
2022/08/14 01:11:07;;;;;;;24.75;17.25;;;;;;;;;;5095198;28;20617;-45
2022/08/14 01:13:38;;;;;;;22.38;17.25;;;;;;;;;;5095118;28;20633;-45
2022/08/14 01:16:12;;;;;;;23.08;16.85;;;;;;;;;;5095468;28;20210;-46
2022/08/14 01:21:33;;;;;;;25.02;16.20;;;;;;;;;;5095188;28;20230;-45
2022/08/14 01:24:02;;;;;;;24.27;17.88;;;;;;;;;;5090462;28;20230;-45
2022/08/14 01:26:35;;;;;;;21.98;17.05;;;;;;;;;;5074575;28;20622;-47
2022/08/14 01:29:05;;;;;;;25.33;17.80;;;;;;;;;;5074995;28;20203;-45
2022/08/14 01:32:11;;;;;;;17.85;15.93;;;;;;;;;;5069909;28;20227;-45
2022/08/14 01:34:36;;;;;;;24.75;17.83;;;;;;;;;;5074048;28;20203;-46
2022/08/14 01:37:24;;;;;;;21.65;17.13;;;;;;;;;;5074562;28;20191;-45
2022/08/14 01:39:52;;;;;;;30.85;16.33;;;;;;;;;;5075003;28;20234;-45
2022/08/14 01:42:20;;;;;;;21.73;17.13;;;;;;;;;;5074486;28;20243;-46
2022/08/14 01:45:10;;;;;;;19.35;16.10;;;;;;;;;;5074538;28;20576;-45
2022/08/14 01:47:37;;;;;;;21.73;16.48;;;;;;;;;;5074504;28;20203;-44
2022/08/14 01:50:06;;;;;;;21.35;16.77;;;;;;;;;;5074490;28;20662;-45
2022/08/14 01:52:36;;;;;;;23.52;16.58;;;;;;;;;;5075131;28;20207;-45
2022/08/14 01:55:30;;;;;;;21.25;16.30;;;;;;;;;;5074612;28;20638;-46
2022/08/14 01:57:58;;;;;;;20.65;16.40;;;;;;;;;;5074747;28;20585;-46
2022/08/14 02:00:52;;;;;;;22.30;16.35;;;;;;;;;;5074699;28;20231;-47
2022/08/14 02:03:28;;;;;;;21.48;16.80;;;;;;;;;;5074374;28;20629;-47
2022/08/14 02:05:58;;;;;;;19.05;16.27;;;;;;;;;;5074629;28;20218;-46
2022/08/14 02:08:45;;;;;;;20.52;16.52;;;;;;;;;;5074840;28;20184;-46
2022/08/14 02:11:22;;;;;;;21.27;15.85;;;;;;;;;;5074559;28;20312;-48
2022/08/14 02:14:02;;;;;;;26.17;17.23;;;;;;;;;;5074524;28;20203;-45
2022/08/14 02:16:38;;;;;;;26.20;17.00;;;;;;;;;;5074649;28;20207;-45
2022/08/14 02:19:10;;;;;;;21.85;17.80;;;;;;;;;;5074289;28;20203;-47
2022/08/14 02:21:38;;;;;;;24.90;17.90;;;;;;;;;;5074213;28;20227;-45
2022/08/14 02:24:13;;;;;;;20.05;16.50;;;;;;;;;;5074660;28;20203;-45
2022/08/14 02:27:00;;;;;;;21.15;15.77;;;;;;;;;;5068780;28;20227;-45
2022/08/14 02:29:47;;;;;;;24.98;16.85;;;;;;;;;;5074404;28;20215;-46
2022/08/14 02:32:28;;;;;;;28.27;18.02;;;;;;;;;;5058766;28;20203;-45
2022/08/14 02:35:15;;;;;;;20.77;17.95;;;;;;;;;;5074159;28;20238;-45
2022/08/14 02:37:47;;;;;;;28.45;19.63;;;;;;;;;;5073905;28;20203;-47
2022/08/14 02:40:19;;;;;;;25.02;19.40;;;;;;;;;;5073993;28;20210;-46
2022/08/14 02:42:58;;;;;;;30.27;20.80;;;;;;;;;;5074357;28;20239;-45
2022/08/14 02:45:31;;;;;;;28.02;20.33;;;;;;;;;;5073835;28;20291;-46
2022/08/14 02:48:12;;;;;;;28.83;21.58;;;;;;;;;;5073654;28;20633;-47
2022/08/14 02:51:06;;;;;;;32.40;22.00;;;;;;;;;;5073690;28;20253;-45
2022/08/14 02:53:38;;;;;;;35.05;22.00;;;;;;;;;;5074741;28;20210;-45
2022/08/14 02:56:09;;;;;;;31.30;21.75;;;;;;;;;;5077316;28;20215;-47
2022/08/14 02:59:00;;;;;;;28.35;21.25;;;;;;;;;;5077427;28;20222;-46
2022/08/14 03:01:31;;;;;;;32.15;21.88;;;;;;;;;;5060670;28;20283;-46
2022/08/14 03:04:17;;;;;;;31.98;22.40;;;;;;;;;;5077147;28;20210;-45
2022/08/14 03:06:47;;;;;;;30.10;22.42;;;;;;;;;;5076979;28;20222;-46
2022/08/14 03:09:33;;;;;;;29.85;21.85;;;;;;;;;;5076911;28;20187;-45
2022/08/14 03:12:20;;;;;;;28.35;20.83;;;;;;;;;;5077040;28;20269;-45
2022/08/14 03:15:01;;;;;;;27.80;21.67;;;;;;;;;;5076888;28;20245;-46
2022/08/14 03:17:28;;;;;;;25.33;20.60;;;;;;;;;;5076883;28;20258;-45
2022/08/14 03:20:09;;;;;;;29.35;21.15;;;;;;;;;;5077050;28;20200;-45
2022/08/14 03:22:38;;;;;;;30.52;22.50;;;;;;;;;;5073846;28;20284;-45
2022/08/14 03:25:10;;;;;;;28.63;21.17;;;;;;;;;;5074294;28;20558;-45
2022/08/14 03:27:38;;;;;;;30.48;20.45;;;;;;;;;;5059489;28;20290;-45
2022/08/14 03:30:26;;;;;;;28.60;20.52;;;;;;;;;;5076910;28;20214;-45
2022/08/14 03:33:08;;;;;;;29.52;21.20;;;;;;;;;;5076812;28;20285;-45
2022/08/14 03:35:38;;;;;;;26.30;20.75;;;;;;;;;;5076882;28;20268;-45
2022/08/14 03:38:25;;;;;;;28.92;21.95;;;;;;;;;;5076705;28;20199;-45
2022/08/14 03:41:18;;;;;;;33.05;22.08;;;;;;;;;;5076609;28;20198;-45
2022/08/14 03:43:54;;;;;;;27.75;22.05;;;;;;;;;;5076186;28;20207;-45
2022/08/14 03:46:37;;;;;;;28.17;22.23;;;;;;;;;;5076553;28;20631;-45
2022/08/14 03:49:23;;;;;;;31.23;22.02;;;;;;;;;;5076959;28;20187;-45
2022/08/14 03:51:57;;;;;;;34.17;23.13;;;;;;;;;;5076794;28;20192;-46
2022/08/14 03:54:27;;;;;;;32.25;23.95;;;;;;;;;;5076647;28;20208;-46
2022/08/14 03:56:59;;;;;;;36.03;23.30;;;;;;;;;;5076276;28;20611;-45
2022/08/14 03:59:29;;;;;;;33.83;23.73;;;;;;;;;;5076388;28;20667;-46
2022/08/14 04:01:57;;;;;;;28.30;22.92;;;;;;;;;;5076123;28;20318;-46
2022/08/14 04:04:29;;;;;;;32.88;22.40;;;;;;;;;;5075824;28;20375;-46
2022/08/14 04:07:00;;;;;;;32.90;24.30;;;;;;;;;;5075801;28;20215;-48
2022/08/14 04:09:28;;;;;;;32.15;22.52;;;;;;;;;;5076088;28;20199;-45
2022/08/14 04:11:55;;;;;;;29.55;22.58;;;;;;;;;;5076278;28;20218;-45
2022/08/14 04:14:27;;;;;;;37.88;23.85;;;;;;;;;;5076236;28;20214;-45
2022/08/14 04:16:55;;;;;;;33.95;23.92;;;;;;;;;;5073779;28;20670;-45
2022/08/14 04:19:22;;;;;;;30.23;24.13;;;;;;;;;;5074769;28;20195;-46
2022/08/14 04:21:54;;;;;;;30.80;23.40;;;;;;;;;;5073766;28;20234;-47
2022/08/14 04:24:31;;;;;;;38.13;24.45;;;;;;;;;;5075865;28;20203;-47
2022/08/14 04:27:07;;;;;;;30.80;23.52;;;;;;;;;;5076046;28;20301;-45
2022/08/14 04:29:40;;;;;;;34.30;25.02;;;;;;;;;;5075937;28;20215;-45
2022/08/14 04:32:09;;;;;;;28.85;23.75;;;;;;;;;;5075685;28;20276;-45
2022/08/14 04:34:56;;;;;;;35.45;24.63;;;;;;;;;;5075601;28;20196;-47
2022/08/14 04:45:43;;;;;;;31.73;25.17;;;;;;;;;;5075444;28;20578;-45
2022/08/14 04:48:15;;;;;;;28.38;23.30;;;;;;;;;;5075609;28;20207;-45
2022/08/14 04:51:05;;;;;;;33.13;23.98;;;;;;;;;;5075479;28;20199;-45
2022/08/14 04:53:33;;;;;;;33.20;24.45;;;;;;;;;;5075642;28;20203;-44
2022/08/14 04:56:21;;;;;;;33.92;24.27;;;;;;;;;;5075881;28;20187;-45
2022/08/14 04:59:05;;;;;;;35.40;24.30;;;;;;;;;;5075194;28;20207;-46
2022/08/14 05:01:40;;;;;;;31.48;24.52;;;;;;;;;;5074583;28;20261;-46
2022/08/14 05:04:14;;;;;;;30.85;23.98;;;;;;;;;;5075013;28;20621;-45
2022/08/14 05:06:47;;;;;;;37.45;23.60;;;;;;;;;;5075278;28;20269;-45
2022/08/14 05:09:15;;;;;;;37.10;25.38;;;;;;;;;;5074922;28;20199;-45
2022/08/14 05:11:43;;;;;;;29.70;23.55;;;;;;;;;;5073938;28;20253;-51
2022/08/14 05:14:11;;;;;;;36.30;24.23;;;;;;;;;;5070984;28;20198;-45
2022/08/14 05:16:59;;;;;;;27.88;23.23;;;;;;;;;;5074745;28;20195;-45
2022/08/14 05:19:28;;;;;;;30.13;23.75;;;;;;;;;;5075193;28;20206;-45
2022/08/14 05:21:59;;;;;;;32.88;24.15;;;;;;;;;;5074961;28;20285;-45
2022/08/14 05:24:49;;;;;;;32.03;24.33;;;;;;;;;;5075078;28;20264;-46
2022/08/14 05:27:19;;;;;;;31.20;24.33;;;;;;;;;;5057994;28;20206;-46
2022/08/14 05:29:51;;;;;;;30.58;23.75;;;;;;;;;;5026028;28;20636;-45
2022/08/14 05:32:19;;;;;;;31.20;23.75;;;;;;;;;;5074986;28;20364;-45
2022/08/14 05:34:46;;;;;;;32.60;24.45;;;;;;;;;;5074913;28;20199;-46
2022/08/14 05:37:13;;;;;;;33.35;23.05;;;;;;;;;;5070192;28;20785;-45
2022/08/14 05:39:42;;;;;;;34.30;22.75;;;;;;;;;;5073555;28;20578;-47
2022/08/14 05:42:09;;;;;;;30.05;22.88;;;;;;;;;;5073643;28;20247;-47
2022/08/14 05:44:53;;;;;;;26.77;22.55;;;;;;;;;;5073431;28;20681;-48
2022/08/14 05:47:22;;;;;;;29.52;23.27;;;;;;;;;;5073708;28;20227;-46
2022/08/14 05:49:49;;;;;;;28.35;23.38;;;;;;;;;;5073730;28;20306;-46
2022/08/14 05:52:18;;;;;;;29.92;22.33;;;;;;;;;;5073161;28;20696;-47
2022/08/14 05:55:09;;;;;;;27.95;22.10;;;;;;;;;;5073921;28;20246;-46
2022/08/14 05:57:53;;;;;;;28.23;21.73;;;;;;;;;;5073326;28;20226;-49
2022/08/14 06:00:37;;;;;;;31.52;22.70;;;;;;;;;;5073850;28;20614;-47
2022/08/14 06:03:08;;;;;;;31.90;22.60;;;;;;;;;;5073732;28;20238;-46
2022/08/14 06:05:36;;;;;;;28.92;23.10;;;;;;;;;;5071110;28;20215;-48
2022/08/14 06:08:04;;;;;;;28.70;22.90;;;;;;;;;;5059751;28;20580;-45
2022/08/14 06:10:48;;;;;;;27.63;21.67;;;;;;;;;;5069748;28;20223;-46
2022/08/14 06:13:17;;;;;;;27.48;22.30;;;;;;;;;;5073608;28;20736;-44
2022/08/14 06:15:46;;;;;;;29.13;23.45;;;;;;;;;;5072328;28;20223;-48
2022/08/14 06:18:17;;;;;;;28.80;23.17;;;;;;;;;;5080409;28;20690;-44
2022/08/14 06:20:44;;;;;;;31.02;23.15;;;;;;;;;;5080133;28;20238;-47
2022/08/14 06:23:12;;;;;;;28.27;23.30;;;;;;;;;;5062761;28;20231;-45
2022/08/14 06:25:41;;;;;;;32.53;23.40;;;;;;;;;;5075031;28;20223;-48
2022/08/14 06:28:20;;;;;;;32.65;23.38;;;;;;;;;;5074328;28;20315;-47
2022/08/14 06:30:54;;;;;;;30.80;24.15;;;;;;;;;;5077165;28;20219;-46
2022/08/14 06:33:22;;;;;;;30.75;24.10;;;;;;;;;;5077033;28;20524;-46
2022/08/14 06:36:09;;;;;;;32.30;24.77;;;;;;;;;;5075128;28;20661;-50
2022/08/14 06:38:37;;;;;;;35.47;25.42;;;;;;;;;;5076679;28;20568;-46
2022/08/14 06:41:04;;;;;;;33.17;25.70;;;;;;;;;;5076987;28;20306;-48
2022/08/14 06:43:36;;;;;;;31.00;25.15;;;;;;;;;;5076458;28;20570;-45
2022/08/14 06:46:10;;;;;;;34.72;24.67;;;;;;;;;;5077229;28;20314;-45
2022/08/14 06:48:49;;;;;;;31.13;25.15;;;;;;;;;;5076845;28;20223;-50
2022/08/14 06:51:16;;;;;;;31.85;25.23;;;;;;;;;;5076487;28;20235;-48
2022/08/14 06:53:43;;;;;;;31.75;24.40;;;;;;;;;;5076469;28;20623;-48
2022/08/14 06:56:12;;;;;;;30.45;24.80;;;;;;;;;;5076686;28;20673;-46
2022/08/14 06:58:39;;;;;;;29.05;24.50;;;;;;;;;;5076384;28;20226;-47
2022/08/14 07:06:53;;;;;;;36.53;25.02;;;;;;;;;;5076277;28;20572;-48
2022/08/14 07:09:26;;;;;;;34.05;25.10;;;;;;;;;;5076472;28;20219;-47
2022/08/14 07:12:09;;;;;;;36.70;25.33;;;;;;;;;;5076531;28;20653;-46
2022/08/14 07:14:57;;;;;;;39.30;26.95;;;;;;;;;;5076221;28;20230;-47
2022/08/14 07:17:27;;;;;;;32.88;27.10;;;;;;;;;;5076551;28;20272;-47
2022/08/14 07:19:57;;;;;;;40.03;28.75;;;;;;;;;;5075910;28;20231;-46
2022/08/14 07:22:25;;;;;;;41.25;26.85;;;;;;;;;;5076041;28;20227;-47
2022/08/14 07:24:59;;;;;;;37.85;24.60;;;;;;;;;;5076152;28;20660;-45
2022/08/14 07:27:25;;;;;;;32.20;24.80;;;;;;;;;;5075981;28;20242;-46
2022/08/14 07:30:02;;;;;;;30.67;24.60;;;;;;;;;;5075925;28;20657;-47
2022/08/14 07:32:30;;;;;;;33.58;25.50;;;;;;;;;;5083041;28;20253;-51
2022/08/14 07:35:00;;;;;;;36.50;25.33;;;;;;;;;;5086458;28;20649;-56
2022/08/14 07:37:27;;;;;;;32.55;25.13;;;;;;;;;;5066851;28;20306;-48
2022/08/14 07:39:54;;;;;;;35.17;25.52;;;;;;;;;;5085575;28;20231;-47
2022/08/14 07:42:22;;;;;;;31.88;25.75;;;;;;;;;;5081634;28;20240;-47
2022/08/14 07:44:49;;;;;;;40.05;25.13;;;;;;;;;;5084535;28;20544;-49
2022/08/14 07:47:16;;;;;;;33.78;25.70;;;;;;;;;;5081071;28;20653;-50
2022/08/14 07:49:57;;;;;;;31.42;24.42;;;;;;;;;;5077042;28;20219;-48
2022/08/14 07:52:27;;;;;;;31.40;24.75;;;;;;;;;;5080189;28;20231;-53
2022/08/14 07:54:59;;;;;;;31.92;24.10;;;;;;;;;;5085807;28;20215;-47
2022/08/14 07:57:26;;;;;;;34.20;25.48;;;;;;;;;;5073534;28;20245;-54
2022/08/14 07:59:53;;;;;;;33.08;24.08;;;;;;;;;;5087098;28;20218;-48
2022/08/14 08:02:21;;;;;;;31.88;24.15;;;;;;;;;;5088707;28;20226;-49
2022/08/14 08:04:51;;;;;;;30.30;24.85;;;;;;;;;;5084509;28;20218;-48
2022/08/14 08:07:22;;;;;;;29.23;23.63;;;;;;;;;;5085361;28;20668;-47
2022/08/14 08:09:53;;;;;;;30.13;24.13;;;;;;;;;;5067115;28;20214;-48
2022/08/14 08:12:20;;;;;;;30.70;22.95;;;;;;;;;;5067910;28;20223;-49
2022/08/14 08:14:56;;;;;;;31.88;23.33;;;;;;;;;;5080759;28;20219;-47
2022/08/14 08:17:36;;;;;;;28.27;23.13;;;;;;;;;;5074471;28;20218;-47
2022/08/14 08:20:25;;;;;;;27.33;22.23;;;;;;;;;;5074311;28;20215;-52
2022/08/14 08:22:57;;;;;;;28.40;22.85;;;;;;;;;;5074771;28;20231;-45
2022/08/14 08:25:34;;;;;;;30.33;23.52;;;;;;;;;;5074625;28;20710;-48
2022/08/14 08:28:16;;;;;;;33.63;23.92;;;;;;;;;;5074729;28;20215;-49
2022/08/14 08:30:55;;;;;;;26.27;23.02;;;;;;;;;;5060504;28;20210;-47
2022/08/14 08:33:29;;;;;;;27.40;23.13;;;;;;;;;;5074360;28;20667;-49
2022/08/14 08:36:00;;;;;;;33.10;22.90;;;;;;;;;;5074586;28;20653;-46
2022/08/14 08:38:27;;;;;;;28.83;23.10;;;;;;;;;;5072327;28;20238;-50
2022/08/14 08:41:14;;;;;;;25.30;21.70;;;;;;;;;;5071452;28;20218;-51
2022/08/14 08:43:43;;;;;;;34.92;22.10;;;;;;;;;;5040869;28;20324;-46
2022/08/14 08:46:14;;;;;;;27.13;21.60;;;;;;;;;;5073839;28;20230;-46
2022/08/14 08:48:50;;;;;;;26.27;21.73;;;;;;;;;;5053901;28;20215;-53
2022/08/14 08:51:34;;;;;;;29.90;22.52;;;;;;;;;;5069949;28;20599;-47
2022/08/14 08:54:07;;;;;;;33.83;22.80;;;;;;;;;;5069096;28;20653;-46
2022/08/14 08:56:49;;;;;;;33.60;21.92;;;;;;;;;;5086578;28;20219;-47
2022/08/14 08:59:22;;;;;;;29.30;23.60;;;;;;;;;;5073783;28;20219;-47
2022/08/14 09:02:02;;;;;;;26.85;22.23;;;;;;;;;;5073883;28;20262;-46
2022/08/14 09:04:43;;;;;;;29.15;21.42;;;;;;;;;;5083834;28;20228;-51
2022/08/14 09:07:25;;;;;;;27.77;22.02;;;;;;;;;;5074102;28;20211;-45
2022/08/14 09:09:54;;;;;;;31.17;22.25;;;;;;;;;;5073588;28;20219;-46
2022/08/14 09:12:29;;;;;;;28.08;21.80;;;;;;;;;;5073711;28;20223;-46
2022/08/14 09:15:03;;;;;;;31.83;22.02;;;;;;;;;;5073702;28;20223;-46
2022/08/14 09:17:42;;;;;;;32.03;22.05;;;;;;;;;;5084346;28;20237;-45
2022/08/14 09:20:10;;;;;;;28.85;21.30;;;;;;;;;;5076829;28;20226;-47
2022/08/14 09:22:39;;;;;;;26.85;21.05;;;;;;;;;;5040010;28;20208;-47
2022/08/14 09:25:16;;;;;;;29.33;22.05;;;;;;;;;;5073742;28;20219;-46
2022/08/14 09:28:03;;;;;;;27.15;22.73;;;;;;;;;;5073339;28;20289;-47
2022/08/14 09:30:34;;;;;;;29.45;21.83;;;;;;;;;;5073043;28;20223;-46
2022/08/14 09:33:01;;;;;;;27.75;22.20;;;;;;;;;;5073452;28;20246;-45
2022/08/14 09:36:18;;;;;;;25.02;20.85;;;;;;;;;;5073470;28;20683;-46
2022/08/14 09:39:14;;;;;;;30.15;22.02;;;;;;;;;;4993111;28;20231;-46
2022/08/14 09:42:11;;;;;;;28.02;21.55;;;;;;;;;;5073625;28;20754;-46
2022/08/14 09:45:22;;;;;;;27.02;21.98;;;;;;;;;;5059813;28;20227;-46
2022/08/14 09:47:55;;;;;;;27.40;20.95;;;;;;;;;;5056000;28;20215;-50
2022/08/14 09:50:43;;;;;;;29.70;21.45;;;;;;;;;;5070233;28;20285;-53
2022/08/14 09:53:11;;;;;;;24.83;21.25;;;;;;;;;;5061651;28;20676;-46
2022/08/14 09:55:44;;;;;;;27.67;21.58;;;;;;;;;;5072976;28;20212;-45
2022/08/14 09:58:13;;;;;;;30.05;22.98;;;;;;;;;;5073165;28;20606;-48
2022/08/14 10:00:52;;;;;;;30.92;24.05;;;;;;;;;;5072760;28;20235;-45
2022/08/14 10:03:34;;;;;;;26.15;23.35;;;;;;;;;;5075047;28;20575;-46
2022/08/14 10:06:12;;;;;;;29.45;22.75;;;;;;;;;;5077465;28;20309;-46
2022/08/14 10:08:46;;;;;;;26.88;21.73;;;;;;;;;;5061088;28;20598;-45
2022/08/14 10:11:34;;;;;;;26.90;21.17;;;;;;;;;;5066502;28;20225;-45
2022/08/14 10:14:18;;;;;;;29.27;21.20;;;;;;;;;;5077525;28;20215;-45
2022/08/14 10:17:04;;;;;;;28.30;22.02;;;;;;;;;;5064554;28;20230;-47
2022/08/14 10:19:34;;;;;;;29.42;20.02;;;;;;;;;;5076669;28;20227;-46
2022/08/14 10:22:09;;;;;;;24.70;21.05;;;;;;;;;;5077067;28;20249;-45
2022/08/14 10:24:56;;;;;;;30.50;20.08;;;;;;;;;;5063059;28;20231;-48
2022/08/14 10:27:26;;;;;;;26.80;21.90;;;;;;;;;;5077187;28;20258;-50
2022/08/14 10:29:59;;;;;;;25.52;20.88;;;;;;;;;;5077098;28;20226;-46
2022/08/14 10:32:27;;;;;;;26.15;21.30;;;;;;;;;;5076345;28;20285;-46
2022/08/14 10:35:09;;;;;;;23.30;20.77;;;;;;;;;;5076870;28;20238;-49
2022/08/14 10:37:45;;;;;;;26.92;20.95;;;;;;;;;;5076854;28;20227;-45
2022/08/14 10:40:14;;;;;;;29.23;20.50;;;;;;;;;;5076827;28;20233;-45
2022/08/14 10:43:02;;;;;;;24.45;20.48;;;;;;;;;;5077031;28;20219;-45
2022/08/14 10:45:32;;;;;;;22.83;20.25;;;;;;;;;;5076976;28;20219;-47
2022/08/14 10:48:01;;;;;;;28.33;20.13;;;;;;;;;;5076548;28;20251;-44
2022/08/14 10:50:40;;;;;;;24.17;21.15;;;;;;;;;;5076639;28;20220;-44
2022/08/14 10:53:08;;;;;;;24.83;20.42;;;;;;;;;;5077457;28;20223;-49
2022/08/14 10:55:39;;;;;;;32.05;22.60;;;;;;;;;;5076478;28;20567;-45
2022/08/14 10:58:12;;;;;;;25.45;22.25;;;;;;;;;;5077147;28;20237;-45
2022/08/14 11:00:53;;;;;;;24.38;21.48;;;;;;;;;;5076459;28;20571;-45
2022/08/14 11:03:24;;;;;;;29.50;21.17;;;;;;;;;;5076450;28;20543;-44
2022/08/14 11:06:21;;;;;;;25.65;21.17;;;;;;;;;;5076400;28;20235;-45
2022/08/14 11:08:51;;;;;;;34.15;23.15;;;;;;;;;;5076676;28;20231;-44
2022/08/14 11:11:21;;;;;;;26.50;22.20;;;;;;;;;;5076621;28;20617;-49
2022/08/14 11:13:49;;;;;;;25.17;21.60;;;;;;;;;;5075905;28;20683;-45
2022/08/14 11:16:17;;;;;;;25.30;20.33;;;;;;;;;;5076255;28;20227;-44
2022/08/14 11:18:47;;;;;;;26.30;22.30;;;;;;;;;;5075891;28;20737;-45
2022/08/14 11:21:19;;;;;;;24.85;22.05;;;;;;;;;;5071392;28;20211;-45
2022/08/14 11:23:48;;;;;;;31.30;21.33;;;;;;;;;;5075930;28;20304;-44
2022/08/14 11:26:19;;;;;;;24.17;18.67;;;;;;;;;;5076860;28;20230;-44
2022/08/14 11:28:49;;;;;;;26.38;20.33;;;;;;;;;;5058730;28;20231;-45
2022/08/14 11:31:22;;;;;;;21.70;18.98;;;;;;;;;;5076147;28;20323;-44
2022/08/14 11:33:56;;;;;;;22.60;17.80;;;;;;;;;;5075613;28;20295;-46
2022/08/14 11:36:26;;;;;;;23.25;17.95;;;;;;;;;;5059572;28;20281;-51
2022/08/14 11:39:21;;;;;;;20.42;18.20;;;;;;;;;;5079620;28;20249;-45
2022/08/14 11:42:06;;;;;;;23.48;18.85;;;;;;;;;;5096058;28;20218;-47
2022/08/14 11:45:03;;;;;;;23.25;19.88;;;;;;;;;;5096283;28;20245;-45
2022/08/14 11:47:37;;;;;;;21.50;19.23;;;;;;;;;;5096921;28;20210;-44
2022/08/14 11:50:29;;;;;;;20.05;17.75;;;;;;;;;;5095246;28;20195;-45
2022/08/14 11:53:05;;;;;;;28.58;18.40;;;;;;;;;;5096913;28;20202;-46
2022/08/14 11:55:35;;;;;;;23.77;17.05;;;;;;;;;;5094164;28;20214;-47
2022/08/14 11:58:10;;;;;;;23.05;17.52;;;;;;;;;;5096872;28;20193;-48
2022/08/14 12:00:52;;;;;;;21.52;17.20;;;;;;;;;;5097282;28;20226;-47
2022/08/14 12:03:20;;;;;;;22.08;16.67;;;;;;;;;;5096444;28;20247;-46
2022/08/14 12:06:10;;;;;;;20.27;15.55;;;;;;;;;;5096962;28;20264;-46
2022/08/14 12:08:57;;;;;;;21.52;15.80;;;;;;;;;;5097229;28;20262;-48
2022/08/14 12:11:37;;;;;;;22.15;15.93;;;;;;;;;;5095917;28;20206;-45
2022/08/14 12:14:11;;;;;;;19.70;15.32;;;;;;;;;;5079643;28;20186;-46
2022/08/14 12:17:05;;;;;;;21.05;14.55;;;;;;;;;;5096055;28;20187;-46
2022/08/14 12:19:48;;;;;;;22.77;14.95;;;;;;;;;;5095665;28;20252;-45
2022/08/14 12:22:39;;;;;;;23.33;13.98;;;;;;;;;;5091603;28;20206;-46
2022/08/14 12:25:13;;;;;;;19.75;14.93;;;;;;;;;;5096283;28;20211;-46
2022/08/14 12:27:48;;;;;;;17.58;14.82;;;;;;;;;;5077503;28;20649;-48
2022/08/14 12:30:39;;;;;;;19.85;13.95;;;;;;;;;;5096038;28;20182;-46
2022/08/14 12:33:24;;;;;;;27.33;13.85;;;;;;;;;;5096185;28;20195;-45
2022/08/14 12:36:07;;;;;;;17.23;13.88;;;;;;;;;;5096358;28;20274;-47
2022/08/14 12:38:35;;;;;;;19.60;13.57;;;;;;;;;;5096185;28;20190;-47
2022/08/14 12:41:09;;;;;;;18.50;13.63;;;;;;;;;;5096004;28;20521;-45
2022/08/14 12:43:56;;;;;;;17.75;12.48;;;;;;;;;;5095762;28;20191;-46
2022/08/14 12:46:30;;;;;;;19.63;12.40;;;;;;;;;;5095992;28;20225;-47
2022/08/14 12:49:08;;;;;;;23.35;12.73;;;;;;;;;;5095486;28;20195;-48
2022/08/14 12:51:36;;;;;;;16.52;12.52;;;;;;;;;;5030375;28;20270;-48
2022/08/14 12:54:16;;;;;;;22.30;13.45;;;;;;;;;;5074135;28;20231;-46
2022/08/14 12:57:07;;;;;;;18.50;11.32;;;;;;;;;;5074406;28;20223;-48
2022/08/14 12:59:45;;;;;;;15.73;12.00;;;;;;;;;;5154108;27;20543;-45
2022/08/14 13:02:21;;;;;;;16.60;13.20;;;;;;;;;;5153118;27;20201;-44
2022/08/14 13:04:56;;;;;;;17.63;12.52;;;;;;;;;;5154143;27;20223;-45
2022/08/14 13:07:28;;;;;;;16.75;12.52;;;;;;;;;;5142703;27;20213;-48
2022/08/14 13:09:59;;;;;;;15.68;11.07;;;;;;;;;;5169892;27;20219;-49
2022/08/14 13:12:27;;;;;;;15.60;12.82;;;;;;;;;;5159007;27;20668;-46
2022/08/14 13:15:05;;;;;;;17.85;12.48;;;;;;;;;;5163718;27;20535;-46
2022/08/14 13:17:39;;;;;;;18.38;12.68;;;;;;;;;;5152598;27;20578;-46
2022/08/14 13:20:09;;;;;;;16.23;12.25;;;;;;;;;;5165713;27;20220;-49
2022/08/14 13:22:51;;;;;;;16.95;12.88;;;;;;;;;;5164880;27;20572;-48
2022/08/14 13:25:23;;;;;;;19.98;13.13;;;;;;;;;;5173829;27;20243;-52
2022/08/14 13:27:56;;;;;;;19.23;13.18;;;;;;;;;;5172504;27;20224;-53
2022/08/14 13:30:25;;;;;;;20.63;12.55;;;;;;;;;;5173278;27;20666;-47
2022/08/14 13:32:53;;;;;;;16.88;12.55;;;;;;;;;;5172415;27;20220;-49
2022/08/14 13:35:24;;;;;;;23.20;13.60;;;;;;;;;;5172637;27;20288;-48
2022/08/14 13:37:51;;;;;;;20.35;12.27;;;;;;;;;;5172827;27;20223;-47
2022/08/14 13:40:22;;;;;;;16.58;12.07;;;;;;;;;;5163894;27;20535;-48
2022/08/14 13:42:54;;;;;;;14.77;11.95;;;;;;;;;;5152402;27;20217;-46
2022/08/14 13:45:25;;;;;;;15.25;11.88;;;;;;;;;;5152440;27;20220;-49
2022/08/14 13:48:14;;;;;;;18.35;12.60;;;;;;;;;;5151840;27;20289;-46
2022/08/14 13:50:59;;;;;;;17.45;13.20;;;;;;;;;;5152064;27;20213;-46
2022/08/14 13:53:28;;;;;;;19.05;13.15;;;;;;;;;;5170337;27;20232;-48
2022/08/14 13:56:00;;;;;;;20.55;13.15;;;;;;;;;;5173034;27;20224;-47
2022/08/14 13:58:33;;;;;;;15.70;12.68;;;;;;;;;;5172213;27;20228;-46
2022/08/14 14:01:02;;;;;;;19.85;12.25;;;;;;;;;;5172239;27;20228;-47
2022/08/14 14:03:33;;;;;;;14.82;13.25;;;;;;;;;;5171290;27;20254;-48
2022/08/14 14:06:02;;;;;;;17.40;12.73;;;;;;;;;;5172392;27;20219;-47
2022/08/14 14:08:32;;;;;;;17.25;13.02;;;;;;;;;;5172355;27;20216;-46
2022/08/14 14:11:16;;;;;;;16.38;12.70;;;;;;;;;;5157545;27;20307;-45
2022/08/14 14:13:45;;;;;;;13.95;12.50;;;;;;;;;;5153055;27;20224;-46
2022/08/14 14:16:13;;;;;;;17.02;12.90;;;;;;;;;;5158556;27;20216;-47
2022/08/14 14:18:59;;;;;;;21.02;12.98;;;;;;;;;;5158481;27;20236;-46
2022/08/14 14:21:36;;;;;;;19.27;13.05;;;;;;;;;;5155454;27;20310;-47
2022/08/14 14:24:04;;;;;;;18.13;12.82;;;;;;;;;;5102141;27;20681;-48
2022/08/14 14:26:31;;;;;;;19.10;13.07;;;;;;;;;;5137815;27;20221;-46
2022/08/14 14:29:02;;;;;;;18.58;11.88;;;;;;;;;;5136908;27;20260;-50
2022/08/14 14:31:30;;;;;;;15.65;12.27;;;;;;;;;;5137496;27;20217;-48
2022/08/14 14:34:01;;;;;;;19.35;11.40;;;;;;;;;;5137581;27;20226;-48
2022/08/14 14:36:49;;;;;;;14.32;11.38;;;;;;;;;;5137501;27;20226;-46
2022/08/14 14:39:26;;;;;;;19.15;11.98;;;;;;;;;;5137248;27;20316;-50
2022/08/14 14:41:56;;;;;;;21.40;12.32;;;;;;;;;;5119494;27;20749;-48
2022/08/14 14:44:25;;;;;;;17.88;12.18;;;;;;;;;;5136203;27;20229;-51
2022/08/14 14:46:52;;;;;;;15.15;11.48;;;;;;;;;;5135727;27;20214;-46
2022/08/14 14:49:22;;;;;;;15.30;11.75;;;;;;;;;;5134633;27;20236;-56
2022/08/14 14:52:09;;;;;;;15.20;11.98;;;;;;;;;;5134055;27;20209;-49
2022/08/14 14:54:53;;;;;;;15.13;12.20;;;;;;;;;;5136957;27;20225;-47
2022/08/14 14:57:20;;;;;;;16.67;11.93;;;;;;;;;;5135203;27;20236;-51
2022/08/14 14:59:47;;;;;;;17.05;12.73;;;;;;;;;;5116288;28;20245;-49
2022/08/14 15:02:28;;;;;;;15.60;12.85;;;;;;;;;;5116594;27;20225;-49
2022/08/14 15:04:56;;;;;;;16.40;12.95;;;;;;;;;;5116108;28;20253;-48
2022/08/14 15:07:23;;;;;;;16.63;12.30;;;;;;;;;;5115746;27;20222;-49
2022/08/14 15:09:50;;;;;;;17.52;12.30;;;;;;;;;;5123445;27;20217;-51
2022/08/14 15:12:17;;;;;;;17.15;12.57;;;;;;;;;;5127249;27;20226;-48
2022/08/14 15:15:05;;;;;;;19.13;12.27;;;;;;;;;;5128944;27;20186;-50
2022/08/14 15:17:35;;;;;;;19.80;13.32;;;;;;;;;;5135812;27;20190;-50
2022/08/14 15:20:12;;;;;;;16.63;12.32;;;;;;;;;;5135859;27;20228;-48